Daisy Vestry, Mississippi
Current Conditions -  °F | °C
As of 9:53 PM on Sunday 25 Jan 2015 (Local Time) from KGPT Reporting Station
Scattered Clouds Scattered Clouds  
Wind Chill: 55°   Ceiling: Unl
Heat Index: 55°   Visibility: 10mi
Dew Point: 41°   Wind: 7mph
Humidity: 59%   Direction: 270°W
Pressure: 29.91"   Gusts: NA
Location:  30.7239°N, 89.1669°W
Report Text: KGPT 260353Z 27006KT 10SM SCT080 13/05 A2991 RMK AO2 SLP128 T01280050 $
Loading
Personal Weather Stations






























Interactive Weather Map New forecast layout! Learn more

10-Day Weather Forecast

Advertisements
Track Severe Weather on mobile